sensor_id;sensor_type;location;lat;lon;timestamp;P1;durP1;ratioP1;P2;durP2;ratioP2
75506;SDS011;64086;43.220;27.878;2023-04-24T00:01:11;14.73;;;9.52;;
75506;SDS011;64086;43.220;27.878;2023-04-24T00:03:37;12.43;;;10.30;;
75506;SDS011;64086;43.220;27.878;2023-04-24T00:06:03;13.50;;;9.63;;
75506;SDS011;64086;43.220;27.878;2023-04-24T00:08:30;12.95;;;9.93;;
75506;SDS011;64086;43.220;27.878;2023-04-24T00:10:55;13.50;;;9.82;;
75506;SDS011;64086;43.220;27.878;2023-04-24T00:13:21;11.85;;;9.82;;
75506;SDS011;64086;43.220;27.878;2023-04-24T00:15:46;15.27;;;10.48;;
75506;SDS011;64086;43.220;27.878;2023-04-24T00:18:12;13.27;;;10.15;;
75506;SDS011;64086;43.220;27.878;2023-04-24T00:20:37;11.90;;;10.13;;
75506;SDS011;64086;43.220;27.878;2023-04-24T00:23:03;13.45;;;9.95;;
75506;SDS011;64086;43.220;27.878;2023-04-24T00:25:28;12.82;;;10.05;;
75506;SDS011;64086;43.220;27.878;2023-04-24T00:27:54;13.40;;;10.13;;
75506;SDS011;64086;43.220;27.878;2023-04-24T00:30:19;15.15;;;10.45;;
75506;SDS011;64086;43.220;27.878;2023-04-24T00:32:45;15.95;;;10.63;;
75506;SDS011;64086;43.220;27.878;2023-04-24T00:35:10;13.10;;;10.70;;
75506;SDS011;64086;43.220;27.878;2023-04-24T00:37:36;13.15;;;10.27;;
75506;SDS011;64086;43.220;27.878;2023-04-24T00:40:01;14.63;;;9.90;;
75506;SDS011;64086;43.220;27.878;2023-04-24T00:42:28;13.38;;;10.38;;
75506;SDS011;64086;43.220;27.878;2023-04-24T00:44:53;13.82;;;10.18;;
75506;SDS011;64086;43.220;27.878;2023-04-24T00:47:19;11.80;;;9.75;;
75506;SDS011;64086;43.220;27.878;2023-04-24T00:49:45;16.73;;;10.32;;
75506;SDS011;64086;43.220;27.878;2023-04-24T00:52:10;14.70;;;9.93;;
75506;SDS011;64086;43.220;27.878;2023-04-24T00:54:37;18.10;;;10.65;;
75506;SDS011;64086;43.220;27.878;2023-04-24T00:57:03;13.10;;;10.50;;
75506;SDS011;64086;43.220;27.878;2023-04-24T00:59:29;12.05;;;10.70;;
75506;SDS011;64086;43.220;27.878;2023-04-24T01:01:54;13.98;;;9.73;;
75506;SDS011;64086;43.220;27.878;2023-04-24T01:04:21;14.82;;;11.32;;
75506;SDS011;64086;43.220;27.878;2023-04-24T01:06:46;18.23;;;11.57;;
75506;SDS011;64086;43.220;27.878;2023-04-24T01:09:13;14.25;;;11.45;;
75506;SDS011;64086;43.220;27.878;2023-04-24T01:11:40;14.85;;;10.55;;
75506;SDS011;64086;43.220;27.878;2023-04-24T01:14:07;13.43;;;10.55;;
75506;SDS011;64086;43.220;27.878;2023-04-24T01:16:33;14.30;;;10.70;;
75506;SDS011;64086;43.220;27.878;2023-04-24T01:18:59;17.08;;;11.35;;
75506;SDS011;64086;43.220;27.878;2023-04-24T01:21:25;14.38;;;11.57;;
75506;SDS011;64086;43.220;27.878;2023-04-24T01:23:52;16.45;;;10.90;;
75506;SDS011;64086;43.220;27.878;2023-04-24T01:26:18;13.80;;;10.57;;
75506;SDS011;64086;43.220;27.878;2023-04-24T01:28:45;16.60;;;12.32;;
75506;SDS011;64086;43.220;27.878;2023-04-24T01:31:11;18.63;;;10.82;;
75506;SDS011;64086;43.220;27.878;2023-04-24T01:33:36;18.58;;;11.38;;
75506;SDS011;64086;43.220;27.878;2023-04-24T01:36:02;17.40;;;11.50;;
75506;SDS011;64086;43.220;27.878;2023-04-24T01:38:28;13.82;;;10.35;;
75506;SDS011;64086;43.220;27.878;2023-04-24T01:40:53;19.15;;;11.60;;
75506;SDS011;64086;43.220;27.878;2023-04-24T01:43:19;17.33;;;11.38;;
75506;SDS011;64086;43.220;27.878;2023-04-24T01:45:44;16.60;;;11.52;;
75506;SDS011;64086;43.220;27.878;2023-04-24T01:48:11;17.27;;;11.50;;
75506;SDS011;64086;43.220;27.878;2023-04-24T01:50:37;15.35;;;11.38;;
75506;SDS011;64086;43.220;27.878;2023-04-24T01:53:03;16.50;;;12.75;;
75506;SDS011;64086;43.220;27.878;2023-04-24T01:55:28;17.05;;;12.63;;
75506;SDS011;64086;43.220;27.878;2023-04-24T01:57:54;21.10;;;12.27;;
75506;SDS011;64086;43.220;27.878;2023-04-24T02:00:20;17.90;;;11.02;;
75506;SDS011;64086;43.220;27.878;2023-04-24T02:02:46;19.38;;;12.27;;
75506;SDS011;64086;43.220;27.878;2023-04-24T02:05:12;21.33;;;12.50;;
75506;SDS011;64086;43.220;27.878;2023-04-24T02:07:37;17.42;;;12.25;;
75506;SDS011;64086;43.220;27.878;2023-04-24T02:10:03;19.38;;;12.63;;
75506;SDS011;64086;43.220;27.878;2023-04-24T02:12:31;24.20;;;14.38;;
75506;SDS011;64086;43.220;27.878;2023-04-24T02:14:57;18.52;;;13.18;;
75506;SDS011;64086;43.220;27.878;2023-04-24T02:17:23;22.15;;;12.90;;
75506;SDS011;64086;43.220;27.878;2023-04-24T02:19:48;16.27;;;12.82;;
75506;SDS011;64086;43.220;27.878;2023-04-24T02:22:14;17.77;;;12.48;;
75506;SDS011;64086;43.220;27.878;2023-04-24T02:24:39;23.90;;;13.75;;
75506;SDS011;64086;43.220;27.878;2023-04-24T02:27:05;21.73;;;14.50;;
75506;SDS011;64086;43.220;27.878;2023-04-24T02:29:30;30.50;;;16.73;;
75506;SDS011;64086;43.220;27.878;2023-04-24T02:31:56;23.13;;;15.27;;
75506;SDS011;64086;43.220;27.878;2023-04-24T02:34:21;22.63;;;14.15;;
75506;SDS011;64086;43.220;27.878;2023-04-24T02:36:48;19.58;;;13.82;;
75506;SDS011;64086;43.220;27.878;2023-04-24T02:39:14;23.13;;;13.93;;
75506;SDS011;64086;43.220;27.878;2023-04-24T02:41:41;24.25;;;15.95;;
75506;SDS011;64086;43.220;27.878;2023-04-24T02:44:07;21.63;;;15.57;;
75506;SDS011;64086;43.220;27.878;2023-04-24T02:46:32;24.70;;;15.48;;
75506;SDS011;64086;43.220;27.878;2023-04-24T02:48:58;30.13;;;16.42;;
75506;SDS011;64086;43.220;27.878;2023-04-24T02:51:24;23.08;;;15.82;;
75506;SDS011;64086;43.220;27.878;2023-04-24T02:53:50;28.77;;;18.23;;
75506;SDS011;64086;43.220;27.878;2023-04-24T02:56:15;27.80;;;18.90;;
75506;SDS011;64086;43.220;27.878;2023-04-24T02:58:41;27.27;;;17.23;;
75506;SDS011;64086;43.220;27.878;2023-04-24T03:01:07;22.65;;;16.75;;
75506;SDS011;64086;43.220;27.878;2023-04-24T03:03:34;27.15;;;17.33;;
75506;SDS011;64086;43.220;27.878;2023-04-24T03:06:00;24.15;;;17.92;;
75506;SDS011;64086;43.220;27.878;2023-04-24T03:08:25;43.10;;;26.92;;
75506;SDS011;64086;43.220;27.878;2023-04-24T03:10:50;122.57;;;70.30;;
75506;SDS011;64086;43.220;27.878;2023-04-24T03:13:16;78.75;;;48.78;;
75506;SDS011;64086;43.220;27.878;2023-04-24T03:15:41;30.55;;;21.30;;
75506;SDS011;64086;43.220;27.878;2023-04-24T03:18:07;25.33;;;17.58;;
75506;SDS011;64086;43.220;27.878;2023-04-24T03:20:32;12.43;;;10.10;;
75506;SDS011;64086;43.220;27.878;2023-04-24T03:22:58;13.57;;;10.25;;
75506;SDS011;64086;43.220;27.878;2023-04-24T03:25:23;18.23;;;12.93;;
75506;SDS011;64086;43.220;27.878;2023-04-24T03:27:49;16.42;;;10.70;;
75506;SDS011;64086;43.220;27.878;2023-04-24T03:30:14;17.02;;;11.60;;
75506;SDS011;64086;43.220;27.878;2023-04-24T03:32:40;21.83;;;14.55;;
75506;SDS011;64086;43.220;27.878;2023-04-24T03:35:06;20.15;;;14.38;;
75506;SDS011;64086;43.220;27.878;2023-04-24T03:37:33;19.60;;;13.93;;
75506;SDS011;64086;43.220;27.878;2023-04-24T03:39:58;25.08;;;17.25;;
75506;SDS011;64086;43.220;27.878;2023-04-24T03:42:24;21.63;;;16.35;;
75506;SDS011;64086;43.220;27.878;2023-04-24T03:44:49;27.17;;;17.52;;
75506;SDS011;64086;43.220;27.878;2023-04-24T03:47:15;25.75;;;18.05;;
75506;SDS011;64086;43.220;27.878;2023-04-24T03:49:40;26.80;;;16.63;;
75506;SDS011;64086;43.220;27.878;2023-04-24T03:52:06;17.35;;;13.70;;
75506;SDS011;64086;43.220;27.878;2023-04-24T03:54:31;22.88;;;18.40;;
75506;SDS011;64086;43.220;27.878;2023-04-24T03:56:56;25.08;;;16.70;;
75506;SDS011;64086;43.220;27.878;2023-04-24T03:59:22;22.90;;;14.52;;
75506;SDS011;64086;43.220;27.878;2023-04-24T04:01:47;21.40;;;13.40;;
75506;SDS011;64086;43.220;27.878;2023-04-24T04:04:13;22.75;;;13.95;;
75506;SDS011;64086;43.220;27.878;2023-04-24T04:06:38;21.90;;;14.02;;
75506;SDS011;64086;43.220;27.878;2023-04-24T04:09:04;20.63;;;13.90;;
75506;SDS011;64086;43.220;27.878;2023-04-24T04:11:29;18.52;;;13.15;;
75506;SDS011;64086;43.220;27.878;2023-04-24T04:13:55;21.35;;;13.55;;
75506;SDS011;64086;43.220;27.878;2023-04-24T04:16:21;20.10;;;13.98;;
75506;SDS011;64086;43.220;27.878;2023-04-24T04:18:47;22.42;;;13.90;;
75506;SDS011;64086;43.220;27.878;2023-04-24T04:21:13;19.33;;;14.35;;
75506;SDS011;64086;43.220;27.878;2023-04-24T04:23:38;18.10;;;14.07;;
75506;SDS011;64086;43.220;27.878;2023-04-24T04:26:04;21.00;;;14.32;;
75506;SDS011;64086;43.220;27.878;2023-04-24T04:28:30;20.30;;;16.05;;
75506;SDS011;64086;43.220;27.878;2023-04-24T04:30:56;21.17;;;15.23;;
75506;SDS011;64086;43.220;27.878;2023-04-24T04:33:23;20.00;;;15.25;;
75506;SDS011;64086;43.220;27.878;2023-04-24T04:35:51;25.67;;;15.23;;
75506;SDS011;64086;43.220;27.878;2023-04-24T04:38:17;21.92;;;14.27;;
75506;SDS011;64086;43.220;27.878;2023-04-24T04:40:44;18.35;;;15.07;;
75506;SDS011;64086;43.220;27.878;2023-04-24T04:43:10;25.33;;;17.33;;
75506;SDS011;64086;43.220;27.878;2023-04-24T04:45:36;24.50;;;17.35;;
75506;SDS011;64086;43.220;27.878;2023-04-24T04:48:04;22.10;;;14.73;;
75506;SDS011;64086;43.220;27.878;2023-04-24T04:50:31;25.92;;;16.00;;
75506;SDS011;64086;43.220;27.878;2023-04-24T04:52:56;17.73;;;15.57;;
75506;SDS011;64086;43.220;27.878;2023-04-24T04:55:21;25.52;;;17.00;;
75506;SDS011;64086;43.220;27.878;2023-04-24T04:57:47;21.55;;;19.27;;
75506;SDS011;64086;43.220;27.878;2023-04-24T05:00:12;26.63;;;20.08;;
75506;SDS011;64086;43.220;27.878;2023-04-24T05:02:38;29.67;;;22.92;;
75506;SDS011;64086;43.220;27.878;2023-04-24T05:05:05;27.45;;;20.30;;
75506;SDS011;64086;43.220;27.878;2023-04-24T05:07:31;23.23;;;17.48;;
75506;SDS011;64086;43.220;27.878;2023-04-24T05:09:56;28.38;;;18.27;;
75506;SDS011;64086;43.220;27.878;2023-04-24T05:12:22;26.48;;;17.58;;
75506;SDS011;64086;43.220;27.878;2023-04-24T05:14:47;22.35;;;18.20;;
75506;SDS011;64086;43.220;27.878;2023-04-24T05:17:13;23.95;;;17.42;;
75506;SDS011;64086;43.220;27.878;2023-04-24T05:19:38;21.02;;;17.20;;
75506;SDS011;64086;43.220;27.878;2023-04-24T05:22:04;20.13;;;15.60;;
75506;SDS011;64086;43.220;27.878;2023-04-24T05:24:31;18.50;;;15.57;;
75506;SDS011;64086;43.220;27.878;2023-04-24T05:26:59;17.90;;;13.82;;
75506;SDS011;64086;43.220;27.878;2023-04-24T05:29:25;15.55;;;12.50;;
75506;SDS011;64086;43.220;27.878;2023-04-24T05:31:51;16.33;;;12.48;;
75506;SDS011;64086;43.220;27.878;2023-04-24T05:34:17;15.85;;;12.80;;
75506;SDS011;64086;43.220;27.878;2023-04-24T05:36:42;11.57;;;8.93;;
75506;SDS011;64086;43.220;27.878;2023-04-24T05:39:08;10.93;;;7.55;;
75506;SDS011;64086;43.220;27.878;2023-04-24T05:41:34;11.52;;;7.28;;
75506;SDS011;64086;43.220;27.878;2023-04-24T05:43:59;11.65;;;7.43;;
75506;SDS011;64086;43.220;27.878;2023-04-24T05:46:25;10.02;;;7.95;;
75506;SDS011;64086;43.220;27.878;2023-04-24T05:48:50;7.70;;;5.75;;
75506;SDS011;64086;43.220;27.878;2023-04-24T05:51:16;7.55;;;5.95;;
75506;SDS011;64086;43.220;27.878;2023-04-24T05:53:41;9.05;;;6.18;;
75506;SDS011;64086;43.220;27.878;2023-04-24T05:56:07;7.72;;;5.38;;
75506;SDS011;64086;43.220;27.878;2023-04-24T05:58:32;9.15;;;5.93;;
75506;SDS011;64086;43.220;27.878;2023-04-24T06:00:57;10.93;;;7.10;;
75506;SDS011;64086;43.220;27.878;2023-04-24T06:03:24;9.48;;;6.10;;
75506;SDS011;64086;43.220;27.878;2023-04-24T06:05:50;12.40;;;6.10;;
75506;SDS011;64086;43.220;27.878;2023-04-24T06:08:16;7.50;;;5.78;;
75506;SDS011;64086;43.220;27.878;2023-04-24T06:10:41;8.98;;;6.07;;
75506;SDS011;64086;43.220;27.878;2023-04-24T06:13:07;9.43;;;5.68;;
75506;SDS011;64086;43.220;27.878;2023-04-24T06:15:33;8.30;;;5.32;;
75506;SDS011;64086;43.220;27.878;2023-04-24T06:17:58;7.65;;;4.88;;
75506;SDS011;64086;43.220;27.878;2023-04-24T06:20:24;8.82;;;5.78;;
75506;SDS011;64086;43.220;27.878;2023-04-24T06:22:50;7.95;;;5.95;;
75506;SDS011;64086;43.220;27.878;2023-04-24T06:25:16;7.13;;;5.07;;
75506;SDS011;64086;43.220;27.878;2023-04-24T06:27:41;7.25;;;5.32;;
75506;SDS011;64086;43.220;27.878;2023-04-24T06:30:07;8.50;;;5.57;;
75506;SDS011;64086;43.220;27.878;2023-04-24T06:32:33;7.80;;;5.32;;
75506;SDS011;64086;43.220;27.878;2023-04-24T06:34:58;7.78;;;4.80;;
75506;SDS011;64086;43.220;27.878;2023-04-24T06:37:24;7.03;;;5.03;;
75506;SDS011;64086;43.220;27.878;2023-04-24T06:39:49;6.88;;;5.00;;
75506;SDS011;64086;43.220;27.878;2023-04-24T06:42:15;7.18;;;5.40;;
75506;SDS011;64086;43.220;27.878;2023-04-24T06:44:40;8.52;;;5.20;;
75506;SDS011;64086;43.220;27.878;2023-04-24T06:47:12;9.73;;;4.88;;
75506;SDS011;64086;43.220;27.878;2023-04-24T06:49:40;8.70;;;5.80;;
75506;SDS011;64086;43.220;27.878;2023-04-24T06:52:06;10.55;;;6.50;;
75506;SDS011;64086;43.220;27.878;2023-04-24T06:54:31;6.53;;;5.03;;
75506;SDS011;64086;43.220;27.878;2023-04-24T06:56:57;6.95;;;5.45;;
75506;SDS011;64086;43.220;27.878;2023-04-24T06:59:24;6.35;;;5.03;;
75506;SDS011;64086;43.220;27.878;2023-04-24T07:01:50;8.80;;;4.70;;
75506;SDS011;64086;43.220;27.878;2023-04-24T07:04:16;6.30;;;5.38;;
75506;SDS011;64086;43.220;27.878;2023-04-24T07:06:42;7.63;;;5.03;;
75506;SDS011;64086;43.220;27.878;2023-04-24T07:09:08;6.95;;;5.15;;
75506;SDS011;64086;43.220;27.878;2023-04-24T07:11:34;7.85;;;4.55;;
75506;SDS011;64086;43.220;27.878;2023-04-24T07:14:00;8.35;;;5.15;;
75506;SDS011;64086;43.220;27.878;2023-04-24T07:16:25;6.65;;;4.88;;
75506;SDS011;64086;43.220;27.878;2023-04-24T07:18:52;8.00;;;4.78;;
75506;SDS011;64086;43.220;27.878;2023-04-24T07:21:17;6.63;;;5.13;;
75506;SDS011;64086;43.220;27.878;2023-04-24T07:23:43;9.13;;;4.88;;
75506;SDS011;64086;43.220;27.878;2023-04-24T07:26:08;5.22;;;4.65;;
75506;SDS011;64086;43.220;27.878;2023-04-24T07:28:33;5.43;;;4.85;;
75506;SDS011;64086;43.220;27.878;2023-04-24T07:30:59;11.15;;;5.55;;
75506;SDS011;64086;43.220;27.878;2023-04-24T07:33:25;11.13;;;5.40;;
75506;SDS011;64086;43.220;27.878;2023-04-24T07:35:51;7.70;;;4.80;;
75506;SDS011;64086;43.220;27.878;2023-04-24T07:38:17;9.20;;;5.03;;
75506;SDS011;64086;43.220;27.878;2023-04-24T07:40:46;8.35;;;4.85;;
75506;SDS011;64086;43.220;27.878;2023-04-24T07:43:11;10.00;;;5.32;;
75506;SDS011;64086;43.220;27.878;2023-04-24T07:45:37;10.13;;;5.45;;
75506;SDS011;64086;43.220;27.878;2023-04-24T07:48:02;11.20;;;5.32;;
75506;SDS011;64086;43.220;27.878;2023-04-24T07:50:28;7.57;;;5.00;;
75506;SDS011;64086;43.220;27.878;2023-04-24T07:52:54;7.20;;;4.85;;
75506;SDS011;64086;43.220;27.878;2023-04-24T07:55:19;7.20;;;5.07;;
75506;SDS011;64086;43.220;27.878;2023-04-24T07:57:45;7.90;;;5.55;;
75506;SDS011;64086;43.220;27.878;2023-04-24T08:00:11;9.48;;;5.30;;
75506;SDS011;64086;43.220;27.878;2023-04-24T08:02:36;7.25;;;4.90;;
75506;SDS011;64086;43.220;27.878;2023-04-24T08:05:02;6.57;;;5.18;;
75506;SDS011;64086;43.220;27.878;2023-04-24T08:07:28;7.70;;;5.00;;
75506;SDS011;64086;43.220;27.878;2023-04-24T08:09:54;8.27;;;5.05;;
75506;SDS011;64086;43.220;27.878;2023-04-24T08:12:19;7.13;;;4.57;;
75506;SDS011;64086;43.220;27.878;2023-04-24T08:14:45;6.18;;;4.60;;
75506;SDS011;64086;43.220;27.878;2023-04-24T08:17:10;8.82;;;5.10;;
75506;SDS011;64086;43.220;27.878;2023-04-24T08:19:36;7.38;;;4.63;;
75506;SDS011;64086;43.220;27.878;2023-04-24T08:22:01;7.70;;;4.82;;
75506;SDS011;64086;43.220;27.878;2023-04-24T08:24:27;9.00;;;5.32;;
75506;SDS011;64086;43.220;27.878;2023-04-24T08:26:53;7.10;;;4.72;;
75506;SDS011;64086;43.220;27.878;2023-04-24T08:29:19;6.82;;;4.78;;
75506;SDS011;64086;43.220;27.878;2023-04-24T08:31:44;8.93;;;5.18;;
75506;SDS011;64086;43.220;27.878;2023-04-24T08:34:10;8.07;;;4.93;;
75506;SDS011;64086;43.220;27.878;2023-04-24T08:36:36;7.85;;;5.03;;
75506;SDS011;64086;43.220;27.878;2023-04-24T08:39:02;7.85;;;5.22;;
75506;SDS011;64086;43.220;27.878;2023-04-24T08:41:27;6.90;;;5.07;;
75506;SDS011;64086;43.220;27.878;2023-04-24T08:43:53;7.85;;;4.82;;
75506;SDS011;64086;43.220;27.878;2023-04-24T08:46:20;8.68;;;5.05;;
75506;SDS011;64086;43.220;27.878;2023-04-24T08:48:45;9.02;;;5.25;;
75506;SDS011;64086;43.220;27.878;2023-04-24T08:51:11;8.85;;;5.47;;
75506;SDS011;64086;43.220;27.878;2023-04-24T08:53:37;8.00;;;4.85;;
75506;SDS011;64086;43.220;27.878;2023-04-24T08:56:02;7.38;;;4.65;;
75506;SDS011;64086;43.220;27.878;2023-04-24T08:58:29;7.85;;;4.53;;
75506;SDS011;64086;43.220;27.878;2023-04-24T09:00:55;6.97;;;5.10;;
75506;SDS011;64086;43.220;27.878;2023-04-24T09:03:21;8.27;;;4.70;;
75506;SDS011;64086;43.220;27.878;2023-04-24T09:05:47;7.93;;;5.00;;
75506;SDS011;64086;43.220;27.878;2023-04-24T09:08:16;6.97;;;5.00;;
75506;SDS011;64086;43.220;27.878;2023-04-24T09:10:42;9.10;;;4.90;;
75506;SDS011;64086;43.220;27.878;2023-04-24T09:13:08;7.45;;;5.47;;
75506;SDS011;64086;43.220;27.878;2023-04-24T09:15:35;7.45;;;5.15;;
75506;SDS011;64086;43.220;27.878;2023-04-24T09:18:01;8.25;;;5.10;;
75506;SDS011;64086;43.220;27.878;2023-04-24T09:20:27;8.57;;;4.78;;
75506;SDS011;64086;43.220;27.878;2023-04-24T09:22:56;7.07;;;5.30;;
75506;SDS011;64086;43.220;27.878;2023-04-24T09:25:22;6.03;;;5.22;;
75506;SDS011;64086;43.220;27.878;2023-04-24T09:27:53;8.20;;;5.80;;
75506;SDS011;64086;43.220;27.878;2023-04-24T09:30:22;8.15;;;5.00;;
75506;SDS011;64086;43.220;27.878;2023-04-24T09:32:48;8.23;;;4.95;;
75506;SDS011;64086;43.220;27.878;2023-04-24T09:35:14;6.80;;;5.07;;
75506;SDS011;64086;43.220;27.878;2023-04-24T09:37:41;7.10;;;4.93;;
75506;SDS011;64086;43.220;27.878;2023-04-24T09:42:59;7.30;;;4.90;;
75506;SDS011;64086;43.220;27.878;2023-04-24T09:45:27;7.53;;;4.82;;
75506;SDS011;64086;43.220;27.878;2023-04-24T09:47:55;6.47;;;5.25;;
75506;SDS011;64086;43.220;27.878;2023-04-24T09:50:20;5.65;;;4.72;;
75506;SDS011;64086;43.220;27.878;2023-04-24T09:52:47;7.40;;;4.90;;
75506;SDS011;64086;43.220;27.878;2023-04-24T09:55:21;9.05;;;4.75;;
75506;SDS011;64086;43.220;27.878;2023-04-24T09:57:47;9.30;;;5.22;;
75506;SDS011;64086;43.220;27.878;2023-04-24T10:00:23;6.00;;;4.68;;
75506;SDS011;64086;43.220;27.878;2023-04-24T10:05:29;5.60;;;4.60;;
75506;SDS011;64086;43.220;27.878;2023-04-24T10:07:59;10.13;;;5.28;;
75506;SDS011;64086;43.220;27.878;2023-04-24T10:10:29;7.03;;;4.80;;
75506;SDS011;64086;43.220;27.878;2023-04-24T10:12:55;7.70;;;5.35;;
75506;SDS011;64086;43.220;27.878;2023-04-24T10:15:21;6.57;;;4.60;;
75506;SDS011;64086;43.220;27.878;2023-04-24T10:17:47;6.78;;;4.22;;
75506;SDS011;64086;43.220;27.878;2023-04-24T10:20:17;7.80;;;4.30;;
75506;SDS011;64086;43.220;27.878;2023-04-24T10:22:45;7.70;;;4.97;;
75506;SDS011;64086;43.220;27.878;2023-04-24T10:25:15;7.15;;;5.50;;
75506;SDS011;64086;43.220;27.878;2023-04-24T10:27:42;6.18;;;5.05;;
75506;SDS011;64086;43.220;27.878;2023-04-24T10:30:08;7.72;;;5.13;;
75506;SDS011;64086;43.220;27.878;2023-04-24T10:32:34;6.38;;;4.72;;
75506;SDS011;64086;43.220;27.878;2023-04-24T10:35:00;10.15;;;5.10;;
75506;SDS011;64086;43.220;27.878;2023-04-24T10:37:25;7.57;;;4.30;;
75506;SDS011;64086;43.220;27.878;2023-04-24T10:39:51;8.68;;;4.68;;
75506;SDS011;64086;43.220;27.878;2023-04-24T10:42:19;8.23;;;4.88;;
75506;SDS011;64086;43.220;27.878;2023-04-24T10:44:47;6.75;;;4.30;;
75506;SDS011;64086;43.220;27.878;2023-04-24T10:47:13;8.00;;;4.85;;
75506;SDS011;64086;43.220;27.878;2023-04-24T10:49:39;8.50;;;4.43;;
75506;SDS011;64086;43.220;27.878;2023-04-24T10:52:05;7.32;;;4.30;;
75506;SDS011;64086;43.220;27.878;2023-04-24T10:59:43;8.98;;;5.07;;
75506;SDS011;64086;43.220;27.878;2023-04-24T11:02:09;4.60;;;4.18;;
75506;SDS011;64086;43.220;27.878;2023-04-24T11:04:35;5.65;;;4.70;;
75506;SDS011;64086;43.220;27.878;2023-04-24T11:07:02;9.27;;;5.38;;
75506;SDS011;64086;43.220;27.878;2023-04-24T11:09:30;6.85;;;5.18;;
75506;SDS011;64086;43.220;27.878;2023-04-24T11:12:03;7.68;;;5.88;;
75506;SDS011;64086;43.220;27.878;2023-04-24T11:14:32;6.50;;;5.57;;
75506;SDS011;64086;43.220;27.878;2023-04-24T11:17:28;10.20;;;6.22;;
75506;SDS011;64086;43.220;27.878;2023-04-24T11:20:00;10.02;;;5.80;;
75506;SDS011;64086;43.220;27.878;2023-04-24T11:22:26;7.13;;;5.40;;
75506;SDS011;64086;43.220;27.878;2023-04-24T11:24:53;7.60;;;5.30;;
75506;SDS011;64086;43.220;27.878;2023-04-24T11:27:20;9.38;;;5.75;;
75506;SDS011;64086;43.220;27.878;2023-04-24T11:29:47;11.48;;;6.25;;
75506;SDS011;64086;43.220;27.878;2023-04-24T11:34:48;12.15;;;5.93;;
75506;SDS011;64086;43.220;27.878;2023-04-24T11:37:15;7.75;;;5.55;;
75506;SDS011;64086;43.220;27.878;2023-04-24T11:39:40;11.07;;;6.03;;
75506;SDS011;64086;43.220;27.878;2023-04-24T11:42:06;8.95;;;5.60;;
75506;SDS011;64086;43.220;27.878;2023-04-24T11:44:33;10.10;;;5.97;;
75506;SDS011;64086;43.220;27.878;2023-04-24T11:46:59;11.25;;;5.45;;
75506;SDS011;64086;43.220;27.878;2023-04-24T11:49:24;7.57;;;5.63;;
75506;SDS011;64086;43.220;27.878;2023-04-24T11:51:50;9.27;;;4.97;;
75506;SDS011;64086;43.220;27.878;2023-04-24T11:54:15;9.02;;;5.75;;
75506;SDS011;64086;43.220;27.878;2023-04-24T11:56:47;8.32;;;6.15;;
75506;SDS011;64086;43.220;27.878;2023-04-24T11:59:13;9.98;;;6.10;;
75506;SDS011;64086;43.220;27.878;2023-04-24T12:01:48;8.80;;;5.30;;
75506;SDS011;64086;43.220;27.878;2023-04-24T12:04:15;7.63;;;5.35;;
75506;SDS011;64086;43.220;27.878;2023-04-24T12:09:26;8.77;;;5.90;;
75506;SDS011;64086;43.220;27.878;2023-04-24T12:11:52;9.15;;;5.53;;
75506;SDS011;64086;43.220;27.878;2023-04-24T12:14:20;7.45;;;5.47;;
75506;SDS011;64086;43.220;27.878;2023-04-24T12:16:47;9.65;;;5.25;;
75506;SDS011;64086;43.220;27.878;2023-04-24T12:19:17;8.23;;;5.32;;
75506;SDS011;64086;43.220;27.878;2023-04-24T12:21:58;11.25;;;5.68;;
75506;SDS011;64086;43.220;27.878;2023-04-24T12:24:27;9.85;;;5.75;;
75506;SDS011;64086;43.220;27.878;2023-04-24T12:26:53;8.00;;;5.13;;
75506;SDS011;64086;43.220;27.878;2023-04-24T12:29:20;8.98;;;5.78;;
75506;SDS011;64086;43.220;27.878;2023-04-24T12:31:46;7.68;;;5.55;;
75506;SDS011;64086;43.220;27.878;2023-04-24T12:34:18;6.72;;;5.13;;
75506;SDS011;64086;43.220;27.878;2023-04-24T12:36:45;7.45;;;5.57;;
75506;SDS011;64086;43.220;27.878;2023-04-24T12:39:14;10.45;;;5.28;;
75506;SDS011;64086;43.220;27.878;2023-04-24T12:41:55;9.32;;;5.68;;
75506;SDS011;64086;43.220;27.878;2023-04-24T12:47:02;11.55;;;5.35;;
75506;SDS011;64086;43.220;27.878;2023-04-24T12:49:29;10.25;;;5.43;;
75506;SDS011;64086;43.220;27.878;2023-04-24T12:51:55;10.60;;;6.15;;
75506;SDS011;64086;43.220;27.878;2023-04-24T12:54:21;7.30;;;6.00;;
75506;SDS011;64086;43.220;27.878;2023-04-24T12:56:47;8.68;;;5.70;;
75506;SDS011;64086;43.220;27.878;2023-04-24T12:59:12;8.00;;;5.82;;
75506;SDS011;64086;43.220;27.878;2023-04-24T13:01:38;9.57;;;6.05;;
75506;SDS011;64086;43.220;27.878;2023-04-24T13:04:04;7.55;;;5.97;;
75506;SDS011;64086;43.220;27.878;2023-04-24T13:06:30;9.05;;;6.43;;
75506;SDS011;64086;43.220;27.878;2023-04-24T13:08:56;8.60;;;6.00;;
75506;SDS011;64086;43.220;27.878;2023-04-24T13:11:23;11.25;;;6.63;;
75506;SDS011;64086;43.220;27.878;2023-04-24T13:13:48;8.75;;;6.22;;
75506;SDS011;64086;43.220;27.878;2023-04-24T13:16:14;9.10;;;6.57;;
75506;SDS011;64086;43.220;27.878;2023-04-24T13:18:40;11.50;;;6.10;;
75506;SDS011;64086;43.220;27.878;2023-04-24T13:21:05;10.07;;;7.20;;
75506;SDS011;64086;43.220;27.878;2023-04-24T13:23:31;7.95;;;6.38;;
75506;SDS011;64086;43.220;27.878;2023-04-24T13:25:58;7.43;;;5.88;;
75506;SDS011;64086;43.220;27.878;2023-04-24T13:28:26;6.80;;;5.80;;
75506;SDS011;64086;43.220;27.878;2023-04-24T13:30:51;9.35;;;5.70;;
75506;SDS011;64086;43.220;27.878;2023-04-24T13:33:17;8.75;;;6.30;;
75506;SDS011;64086;43.220;27.878;2023-04-24T13:35:43;7.82;;;5.43;;
75506;SDS011;64086;43.220;27.878;2023-04-24T13:38:08;8.75;;;5.80;;
75506;SDS011;64086;43.220;27.878;2023-04-24T13:40:34;6.80;;;5.60;;
75506;SDS011;64086;43.220;27.878;2023-04-24T13:42:59;8.57;;;5.85;;
75506;SDS011;64086;43.220;27.878;2023-04-24T13:45:25;8.68;;;5.88;;
75506;SDS011;64086;43.220;27.878;2023-04-24T13:47:51;8.15;;;5.63;;
75506;SDS011;64086;43.220;27.878;2023-04-24T13:50:18;7.65;;;5.78;;
75506;SDS011;64086;43.220;27.878;2023-04-24T13:52:44;8.05;;;6.00;;
75506;SDS011;64086;43.220;27.878;2023-04-24T13:55:10;7.30;;;5.78;;
75506;SDS011;64086;43.220;27.878;2023-04-24T13:57:35;7.47;;;5.13;;
75506;SDS011;64086;43.220;27.878;2023-04-24T14:00:01;7.55;;;6.07;;
75506;SDS011;64086;43.220;27.878;2023-04-24T14:02:28;8.05;;;5.43;;
75506;SDS011;64086;43.220;27.878;2023-04-24T14:04:54;8.65;;;5.65;;
75506;SDS011;64086;43.220;27.878;2023-04-24T14:07:20;9.02;;;6.32;;
75506;SDS011;64086;43.220;27.878;2023-04-24T14:09:45;8.57;;;5.80;;
75506;SDS011;64086;43.220;27.878;2023-04-24T14:12:11;9.48;;;5.68;;
75506;SDS011;64086;43.220;27.878;2023-04-24T14:14:37;12.40;;;6.60;;
75506;SDS011;64086;43.220;27.878;2023-04-24T14:17:03;9.52;;;6.45;;
75506;SDS011;64086;43.220;27.878;2023-04-24T14:19:28;8.75;;;5.32;;
75506;SDS011;64086;43.220;27.878;2023-04-24T14:21:53;8.05;;;5.65;;
75506;SDS011;64086;43.220;27.878;2023-04-24T14:24:20;10.35;;;6.72;;
75506;SDS011;64086;43.220;27.878;2023-04-24T14:26:46;9.48;;;5.47;;
75506;SDS011;64086;43.220;27.878;2023-04-24T14:29:11;8.48;;;6.03;;
75506;SDS011;64086;43.220;27.878;2023-04-24T14:31:37;8.50;;;5.38;;
75506;SDS011;64086;43.220;27.878;2023-04-24T14:34:02;11.20;;;5.80;;
75506;SDS011;64086;43.220;27.878;2023-04-24T14:36:27;9.70;;;6.00;;